Time;durP1;ratioP1;P1;durP2;ratioP2;P2;SDS_P1;SDS_P2;PMS_P1;PMS_P2;Temp;Humidity;BMP_temperature;BMP_pressure;BME280_temperature;BME280_humidity;BME280_pressure;Samples;Min_cycle;Max_cycle;Signal;HPM_P1;HPM_P2
2023/05/16 00:00:53;;;;;;;4.50;1.33;;;;;;;18.77;58.56;101846.88;6124961;23;20010;-52
2023/05/16 00:03:19;;;;;;;6.57;1.55;;;;;;;18.76;58.71;101856.81;6125139;23;20443;-53
2023/05/16 00:05:45;;;;;;;3.10;1.40;;;;;;;18.76;58.36;101854.13;6124859;23;20037;-51
2023/05/16 00:08:10;;;;;;;3.78;1.30;;;;;;;18.76;58.20;101854.13;6124910;23;20013;-52
2023/05/16 00:10:36;;;;;;;3.20;1.17;;;;;;;18.76;58.40;101848.72;6124969;23;20006;-52
2023/05/16 00:13:01;;;;;;;2.45;1.15;;;;;;;18.76;58.44;101855.97;6125668;23;20009;-51
2023/05/16 00:15:28;;;;;;;4.78;1.48;;;;;;;18.76;58.51;101856.81;6124962;23;20009;-53
2023/05/16 00:17:57;;;;;;;3.60;1.30;;;;;;;18.74;58.49;101850.69;6125053;23;20002;-53
2023/05/16 00:20:23;;;;;;;2.97;1.23;;;;;;;18.74;58.20;101853.41;6124896;23;20455;-53
2023/05/16 00:22:49;;;;;;;2.78;1.10;;;;;;;18.74;58.63;101858.78;6124672;23;20029;-53
2023/05/16 00:25:15;;;;;;;3.88;1.00;;;;;;;18.75;58.51;101857.81;6125040;23;20009;-52
2023/05/16 00:27:40;;;;;;;3.28;1.38;;;;;;;18.75;58.28;101865.03;6124990;23;20452;-52
2023/05/16 00:30:06;;;;;;;3.67;1.52;;;;;;;18.74;58.41;101864.19;6124575;23;20017;-52
2023/05/16 00:32:32;;;;;;;6.70;1.30;;;;;;;18.74;58.46;101861.50;6125247;23;20077;-53
2023/05/16 00:34:57;;;;;;;3.17;1.42;;;;;;;18.74;58.23;101864.19;6124756;23;20033;-53
2023/05/16 00:37:23;;;;;;;2.95;1.20;;;;;;;18.73;58.30;101857.09;6124700;23;20013;-53
2023/05/16 00:39:48;;;;;;;2.85;1.33;;;;;;;18.73;58.47;101862.50;6124780;23;20010;-51
2023/05/16 00:42:14;;;;;;;4.85;1.33;;;;;;;18.73;58.61;101862.50;6124460;23;20330;-52
2023/05/16 00:44:40;;;;;;;3.55;1.15;;;;;;;18.73;58.29;101862.50;6124841;23;20052;-52
2023/05/16 00:47:05;;;;;;;4.20;1.60;;;;;;;18.73;58.21;101867.88;6124207;23;20042;-52
2023/05/16 00:49:31;;;;;;;3.53;1.20;;;;;;;18.72;58.46;101858.06;6125129;23;20094;-53
2023/05/16 00:51:57;;;;;;;2.78;1.05;;;;;;;18.72;58.39;101855.38;6124699;23;20332;-53
2023/05/16 00:54:25;;;;;;;2.42;1.20;;;;;;;18.72;58.02;101862.63;6124294;23;20016;-52
2023/05/16 00:56:51;;;;;;;2.42;0.90;;;;;;;18.71;57.90;101861.72;6124734;23;20013;-52
2023/05/16 00:59:17;;;;;;;3.80;1.20;;;;;;;18.71;58.38;101864.44;6124248;23;20029;-53
2023/05/16 01:01:45;;;;;;;2.22;1.02;;;;;;;18.71;58.08;101868.97;6124719;23;20002;-52
2023/05/16 01:04:11;;;;;;;1.58;1.02;;;;;;;18.70;58.07;101861.88;6125080;23;20016;-53
2023/05/16 01:06:36;;;;;;;4.05;1.40;;;;;;;18.69;58.00;101866.41;6124234;23;20018;-53
2023/05/16 01:09:02;;;;;;;5.45;1.38;;;;;;;18.70;58.31;101873.53;6124873;23;20457;-52
2023/05/16 01:11:38;;;;;;;4.65;1.35;;;;;;;18.70;58.13;101867.28;6124716;23;20006;-51
2023/05/16 01:14:18;;;;;;;8.60;2.08;;;;;;;18.71;58.27;101874.38;6125043;23;20456;-53
2023/05/16 01:17:07;;;;;;;3.35;1.33;;;;;;;18.71;57.86;101877.91;6124676;23;20009;-52
2023/05/16 01:19:50;;;;;;;6.28;1.73;;;;;;;18.69;58.25;101874.50;6124926;23;20054;-53
2023/05/16 01:22:46;;;;;;;3.72;1.30;;;;;;;18.70;57.96;101872.69;6124560;23;20009;-52
2023/05/16 01:25:36;;;;;;;5.78;1.13;;;;;;;18.71;57.91;101874.38;6124056;23;20006;-53
2023/05/16 01:28:03;;;;;;;4.05;1.40;;;;;;;18.68;58.11;101875.50;6125087;23;20306;-53
2023/05/16 01:30:36;;;;;;;3.67;1.10;;;;;;;18.68;58.12;101875.50;6124194;23;20084;-52
2023/05/16 01:33:01;;;;;;;4.13;1.02;;;;;;;18.67;58.14;101876.47;6124488;23;20322;-53
2023/05/16 01:35:27;;;;;;;4.22;1.42;;;;;;;18.67;57.56;101879.16;6124478;23;20009;-52
2023/05/16 01:38:24;;;;;;;6.10;1.73;;;;;;;18.69;57.86;101882.59;6124210;23;20030;-52
2023/05/16 01:41:12;;;;;;;4.95;1.23;;;;;;;18.66;57.61;101882.84;6124119;23;20033;-53
2023/05/16 01:43:43;;;;;;;4.97;1.30;;;;;;;18.66;58.09;101880.16;6124163;23;20049;-50
2023/05/16 01:46:12;;;;;;;5.22;1.80;;;;;;;18.65;58.06;101883.81;6124136;23;20002;-52
2023/05/16 01:48:51;;;;;;;4.60;1.15;;;;;;;18.65;57.96;101886.53;6124472;23;20089;-53
2023/05/16 01:51:21;;;;;;;4.53;1.50;;;;;;;18.63;57.79;101888.50;6123872;23;20005;-53
2023/05/16 01:53:49;;;;;;;5.47;1.42;;;;;;;18.63;58.01;101893.88;6124400;23;20010;-52
2023/05/16 01:56:16;;;;;;;3.97;1.50;;;;;;;18.62;57.69;101894.88;6124281;23;20065;-53
2023/05/16 01:58:43;;;;;;;3.00;1.40;;;;;;;18.63;58.08;101893.03;6124061;23;20010;-52
2023/05/16 02:01:08;;;;;;;5.25;1.38;;;;;;;18.62;57.36;101894.88;6124114;23;20369;-53
2023/05/16 02:03:33;;;;;;;5.85;1.40;;;;;;;18.62;57.80;101894.00;6124632;23;20014;-52
2023/05/16 02:05:59;;;;;;;5.53;1.60;;;;;;;18.62;57.37;101899.41;6123832;23;20018;-52
2023/05/16 02:08:26;;;;;;;7.55;1.83;;;;;;;18.60;57.90;101904.94;6123917;23;20012;-51
2023/05/16 02:10:52;;;;;;;4.18;1.20;;;;;;;18.61;57.53;101900.41;6123848;23;20080;-53
2023/05/16 02:13:17;;;;;;;2.75;1.13;;;;;;;18.60;57.54;101904.06;6123823;23;20010;-53
2023/05/16 02:15:43;;;;;;;3.92;1.20;;;;;;;18.59;57.72;101903.22;6123993;23;20125;-52
2023/05/16 02:18:09;;;;;;;2.95;1.20;;;;;;;18.59;57.14;101903.22;6123939;23;20240;-53
2023/05/16 02:20:34;;;;;;;3.65;1.27;;;;;;;18.58;57.10;101900.63;6124635;23;20010;-53
2023/05/16 02:23:02;;;;;;;6.60;1.25;;;;;;;18.58;57.42;101906.03;6123831;23;20040;-52
2023/05/16 02:25:27;;;;;;;4.15;1.38;;;;;;;18.57;57.22;101907.88;6124137;23;20013;-53
2023/05/16 02:27:52;;;;;;;4.97;1.33;;;;;;;18.58;57.34;101906.88;6123728;23;20014;-53
2023/05/16 02:30:18;;;;;;;3.97;1.25;;;;;;;18.57;57.48;101897.09;6123770;23;20010;-53
2023/05/16 02:32:43;;;;;;;3.58;1.70;;;;;;;18.57;57.43;101905.19;6123630;23;20006;-52
2023/05/16 02:35:10;;;;;;;6.80;1.40;;;;;;;18.56;57.10;101909.72;6123890;23;20342;-53
2023/05/16 02:37:35;;;;;;;6.35;1.40;;;;;;;18.56;57.26;101911.53;6124021;23;20014;-53
2023/05/16 02:40:02;;;;;;;4.13;1.73;;;;;;;18.55;56.97;101907.16;6123988;23;20060;-53
2023/05/16 02:42:28;;;;;;;4.55;1.25;;;;;;;18.54;57.43;101917.09;6123748;23;20969;-53
2023/05/16 02:44:54;;;;;;;4.57;1.48;;;;;;;18.54;57.26;101916.22;6123731;23;20038;-53
2023/05/16 02:47:19;;;;;;;3.03;1.20;;;;;;;18.53;57.10;101918.06;6123516;23;20036;-52
2023/05/16 02:49:44;;;;;;;2.67;1.15;;;;;;;18.53;57.43;101920.75;6123923;23;20009;-52
2023/05/16 02:52:10;;;;;;;2.42;1.13;;;;;;;18.53;56.83;101936.09;6123914;23;20540;-53
2023/05/16 02:54:36;;;;;;;7.07;1.30;;;;;;;18.52;57.35;101935.22;6124921;23;20085;-53
2023/05/16 02:57:01;;;;;;;4.68;1.20;;;;;;;18.53;57.44;101936.09;6123572;23;20010;-52
2023/05/16 02:59:26;;;;;;;2.58;1.00;;;;;;;18.52;57.13;101931.66;6123724;23;20037;-51
2023/05/16 03:01:52;;;;;;;4.43;1.30;;;;;;;18.51;56.84;101938.91;6123447;23;20405;-53
2023/05/16 03:04:17;;;;;;;3.55;1.20;;;;;;;18.52;57.15;101945.13;6123990;23;20010;-53
2023/05/16 03:06:43;;;;;;;3.80;1.63;;;;;;;18.51;57.23;101940.75;6123283;23;20445;-51
2023/05/16 03:09:08;;;;;;;3.90;1.25;;;;;;;18.49;56.88;101940.88;6124470;23;20422;-51
2023/05/16 03:11:34;;;;;;;3.05;1.42;;;;;;;18.49;57.17;101945.41;6123533;23;20487;-52
2023/05/16 03:14:00;;;;;;;2.97;1.00;;;;;;;18.49;56.94;101945.41;6123446;23;20017;-53
2023/05/16 03:16:25;;;;;;;3.13;1.30;;;;;;;18.49;56.94;101950.81;6123462;23;20017;-53
2023/05/16 03:18:50;;;;;;;2.80;1.00;;;;;;;18.49;56.90;101956.19;6123554;23;20089;-50
2023/05/16 03:21:16;;;;;;;3.35;1.10;;;;;;;18.48;56.89;101949.91;6123154;23;20005;-53
2023/05/16 03:23:42;;;;;;;3.17;1.30;;;;;;;18.47;56.95;101952.75;6123526;23;20010;-53
2023/05/16 03:26:07;;;;;;;2.88;1.23;;;;;;;18.48;56.73;101954.47;6124039;23;20010;-53
2023/05/16 03:28:32;;;;;;;3.63;1.45;;;;;;;18.47;56.57;101955.47;6123769;23;20018;-52
2023/05/16 03:30:58;;;;;;;5.82;1.52;;;;;;;18.46;56.98;101945.63;6123461;23;20006;-52
2023/05/16 03:33:23;;;;;;;2.60;1.10;;;;;;;18.46;56.80;101951.03;6123212;23;20445;-49
2023/05/16 03:35:49;;;;;;;6.32;1.40;;;;;;;18.44;56.91;101950.31;6123346;23;20014;-51
2023/05/16 03:38:15;;;;;;;2.25;1.00;;;;;;;18.44;57.09;101944.91;6123804;23;20014;-51
2023/05/16 03:40:41;;;;;;;3.28;1.33;;;;;;;18.44;56.86;101953.00;6123215;23;20016;-53
2023/05/16 03:43:07;;;;;;;3.35;1.10;;;;;;;18.44;56.89;101961.94;6123875;23;20029;-52
2023/05/16 03:45:32;;;;;;;3.28;1.17;;;;;;;18.44;56.92;101959.25;6097981;23;20006;-53
2023/05/16 03:47:58;;;;;;;4.50;1.45;;;;;;;18.44;56.57;101963.78;6123306;23;20032;-53
2023/05/16 03:50:24;;;;;;;2.50;1.30;;;;;;;18.43;56.63;101970.16;6125336;23;20016;-53
2023/05/16 03:52:52;;;;;;;5.50;1.75;;;;;;;18.42;56.96;101963.91;6125744;23;20012;-53
2023/05/16 03:55:18;;;;;;;5.05;1.00;;;;;;;18.42;56.45;101971.13;6125141;23;20006;-51
2023/05/16 03:57:44;;;;;;;2.70;1.02;;;;;;;18.41;56.75;101974.81;6125541;23;20501;-52
2023/05/16 04:00:11;;;;;;;2.45;1.13;;;;;;;18.40;56.65;101973.94;6125689;23;20033;-53
2023/05/16 04:02:39;;;;;;;3.40;1.10;;;;;;;18.40;56.68;101975.81;6125401;23;20076;-53
2023/05/16 04:05:06;;;;;;;3.63;1.13;;;;;;;18.39;56.79;101972.25;6124782;23;20077;-52
2023/05/16 04:07:32;;;;;;;3.20;1.00;;;;;;;18.39;56.53;101982.16;6099933;23;20021;-53
2023/05/16 04:09:57;;;;;;;3.53;1.02;;;;;;;18.40;56.57;101978.50;6125023;23;20425;-53
2023/05/16 04:12:22;;;;;;;3.47;1.45;;;;;;;18.39;56.57;101988.44;6125217;23;20345;-52
2023/05/16 04:14:48;;;;;;;4.50;1.60;;;;;;;18.37;56.70;101984.97;6125047;23;20005;-53
2023/05/16 04:17:13;;;;;;;5.25;1.50;;;;;;;18.38;56.74;101980.47;6124705;23;20065;-53
2023/05/16 04:19:39;;;;;;;3.05;1.33;;;;;;;18.36;56.59;101986.81;6125470;23;20068;-53
2023/05/16 04:22:05;;;;;;;4.93;0.98;;;;;;;18.35;56.49;101987.81;6124977;23;20413;-52
2023/05/16 04:24:30;;;;;;;4.05;1.13;;;;;;;18.36;56.47;101994.06;6124865;23;20016;-52
2023/05/16 04:26:56;;;;;;;3.03;1.08;;;;;;;18.35;56.60;101984.22;6124711;23;20081;-52
2023/05/16 04:29:22;;;;;;;3.63;1.15;;;;;;;18.35;56.73;101995.03;6125084;23;20374;-51
2023/05/16 04:31:47;;;;;;;2.28;1.27;;;;;;;18.35;56.59;101998.59;6124113;23;20013;-49
2023/05/16 04:34:14;;;;;;;7.65;1.15;;;;;;;18.35;56.40;102003.09;6124865;23;20010;-53
2023/05/16 04:36:39;;;;;;;3.60;1.10;;;;;;;18.33;56.20;102003.25;6124727;23;20013;-53
2023/05/16 04:39:06;;;;;;;4.90;1.02;;;;;;;18.34;56.55;102001.41;6123696;23;20014;-50
2023/05/16 04:41:32;;;;;;;4.38;1.33;;;;;;;18.33;56.58;102013.16;6123758;23;20010;-53
2023/05/16 04:43:58;;;;;;;5.57;1.33;;;;;;;18.33;56.56;102011.34;6124023;23;20010;-52
2023/05/16 04:46:23;;;;;;;4.40;1.30;;;;;;;18.32;56.61;102015.00;6124173;23;20092;-52
2023/05/16 04:48:49;;;;;;;6.38;1.50;;;;;;;18.32;56.51;102012.31;6124050;23;20017;-53
2023/05/16 04:51:14;;;;;;;4.70;1.25;;;;;;;18.33;56.41;102015.84;6123966;23;20010;-52
2023/05/16 04:53:39;;;;;;;3.75;1.40;;;;;;;18.31;56.29;102013.28;6124570;23;20021;-52
2023/05/16 04:56:05;;;;;;;2.30;0.80;;;;;;;18.31;56.77;102024.06;6124237;23;20018;-53
2023/05/16 04:58:31;;;;;;;3.20;1.63;;;;;;;18.31;55.93;102024.06;6124222;23;20009;-53
2023/05/16 05:00:56;;;;;;;3.70;0.93;;;;;;;18.30;55.49;102022.34;6122987;23;20461;-52
2023/05/16 05:03:22;;;;;;;6.20;1.45;;;;;;;18.29;55.46;102028.72;6123508;23;20010;-52
2023/05/16 05:05:47;;;;;;;4.75;1.23;;;;;;;18.28;55.69;102035.09;6123249;23;20100;-53
2023/05/16 05:08:13;;;;;;;4.47;1.48;;;;;;;18.26;55.16;102031.66;6124183;23;20014;-52
2023/05/16 05:10:39;;;;;;;5.38;1.20;;;;;;;18.25;54.92;102021.84;6123798;23;20018;-52
2023/05/16 05:13:04;;;;;;;6.22;1.10;;;;;;;18.23;54.77;102026.50;6124145;23;20442;-53
2023/05/16 05:15:30;;;;;;;7.93;1.48;;;;;;;18.23;54.89;102025.66;6122755;23;20041;-53
2023/05/16 05:17:55;;;;;;;6.10;1.52;;;;;;;18.21;54.64;102028.47;6123180;23;20009;-53
2023/05/16 05:20:20;;;;;;;6.28;2.03;;;;;;;18.21;54.58;102036.53;6123410;23;20057;-53
2023/05/16 05:22:46;;;;;;;6.72;1.63;;;;;;;18.18;54.07;102034.06;6123363;23;20101;-53
2023/05/16 05:25:11;;;;;;;4.57;1.10;;;;;;;18.20;54.31;102039.34;6124346;23;20062;-53
2023/05/16 05:27:37;;;;;;;5.05;1.65;;;;;;;18.18;54.46;102034.06;6097562;23;20434;-54
2023/05/16 05:30:03;;;;;;;6.40;1.58;;;;;;;18.17;54.13;102035.91;6123882;23;20010;-54
2023/05/16 05:32:28;;;;;;;5.53;1.40;;;;;;;18.17;53.83;102037.75;6123489;23;20002;-54
2023/05/16 05:34:54;;;;;;;4.30;1.40;;;;;;;18.16;53.88;102038.72;6123555;23;20009;-54
2023/05/16 05:37:19;;;;;;;5.28;1.20;;;;;;;18.16;53.74;102044.13;6122876;23;20006;-54
2023/05/16 05:39:45;;;;;;;4.43;1.27;;;;;;;18.16;53.85;102047.69;6124202;23;20056;-53
2023/05/16 05:42:13;;;;;;;5.47;1.23;;;;;;;18.14;53.64;102048.78;6123357;23;20042;-53
2023/05/16 05:44:38;;;;;;;6.32;1.30;;;;;;;18.15;53.76;102063.97;6123516;23;20033;-53
2023/05/16 05:47:05;;;;;;;6.32;1.48;;;;;;;18.12;53.54;102056.97;6122610;23;20006;-54
2023/05/16 05:49:31;;;;;;;2.92;1.23;;;;;;;18.11;53.73;102057.13;6123838;23;20458;-54
2023/05/16 05:51:56;;;;;;;5.68;1.52;;;;;;;18.12;53.83;102050.72;6098038;23;20006;-53
2023/05/16 05:54:22;;;;;;;7.10;1.50;;;;;;;18.11;53.27;102054.41;6122890;23;20417;-54
2023/05/16 05:56:48;;;;;;;7.78;1.85;;;;;;;18.09;53.23;102061.75;6122670;23;20010;-54
2023/05/16 05:59:14;;;;;;;5.07;1.35;;;;;;;18.10;53.43;102058.06;6122949;23;20341;-53
2023/05/16 06:01:39;;;;;;;7.40;1.23;;;;;;;18.08;53.11;102066.28;6122182;23;20010;-53
2023/05/16 06:04:05;;;;;;;5.80;1.90;;;;;;;18.09;53.08;102065.31;6122374;23;20044;-53
2023/05/16 06:06:31;;;;;;;9.02;2.00;;;;;;;18.07;53.12;102067.25;6122545;23;20028;-53
2023/05/16 06:08:59;;;;;;;5.35;1.40;;;;;;;18.08;53.10;102073.50;6123271;23;20013;-53
2023/05/16 06:11:25;;;;;;;3.80;1.25;;;;;;;18.09;53.22;102069.84;6123627;23;20433;-52
2023/05/16 06:13:51;;;;;;;5.95;1.40;;;;;;;18.07;53.36;102077.19;6124134;23;20037;-53
2023/05/16 06:16:16;;;;;;;6.97;1.88;;;;;;;18.08;53.15;102070.81;6124516;23;20089;-52
2023/05/16 06:18:42;;;;;;;8.27;1.85;;;;;;;18.06;52.92;102078.16;6124152;23;20440;-53
2023/05/16 06:21:08;;;;;;;5.65;1.50;;;;;;;18.06;53.22;102081.69;6123717;23;20108;-53
2023/05/16 06:23:33;;;;;;;7.32;1.52;;;;;;;18.07;53.00;102077.19;6123869;23;20081;-54
2023/05/16 06:25:59;;;;;;;5.93;1.77;;;;;;;18.06;53.12;102081.69;6124056;23;20010;-54
2023/05/16 06:28:24;;;;;;;5.47;1.67;;;;;;;18.05;52.82;102085.38;6124020;23;20017;-53
2023/05/16 06:30:50;;;;;;;2.63;1.20;;;;;;;18.06;52.90;102083.56;6124085;23;20398;-52
2023/05/16 06:33:16;;;;;;;4.32;1.42;;;;;;;18.07;52.78;102090.66;6124324;23;20006;-53
2023/05/16 06:35:42;;;;;;;7.60;1.25;;;;;;;18.06;53.05;102084.41;6124390;23;20010;-53
2023/05/16 06:38:07;;;;;;;4.93;1.10;;;;;;;18.05;52.35;102087.22;6124240;23;20853;-50
2023/05/16 06:40:33;;;;;;;3.65;1.35;;;;;;;18.07;52.87;102090.66;6123657;23;20013;-53
2023/05/16 06:42:58;;;;;;;7.15;1.45;;;;;;;18.05;52.85;102093.47;6097894;23;20049;-53
2023/05/16 06:45:24;;;;;;;4.53;1.10;;;;;;;18.05;52.63;102090.78;6123714;23;20006;-53
2023/05/16 06:47:49;;;;;;;8.43;1.52;;;;;;;18.05;52.76;102098.88;6123872;23;20016;-52
2023/05/16 06:50:14;;;;;;;4.13;1.10;;;;;;;18.06;52.83;102084.41;6124224;23;20463;-52
2023/05/16 06:52:40;;;;;;;4.13;1.52;;;;;;;18.06;52.84;102091.63;6123953;23;20388;-52
2023/05/16 06:55:06;;;;;;;3.08;1.40;;;;;;;18.06;52.71;102088.94;6123485;23;20023;-52
2023/05/16 06:57:32;;;;;;;4.75;1.58;;;;;;;18.06;52.87;102094.31;6123885;23;20010;-53
2023/05/16 06:59:57;;;;;;;4.70;1.13;;;;;;;18.06;52.79;102086.25;6123703;23;20041;-53
2023/05/16 07:02:22;;;;;;;3.67;1.10;;;;;;;18.06;52.93;102086.25;6123525;23;20310;-52
2023/05/16 07:04:48;;;;;;;6.15;1.15;;;;;;;18.07;53.07;102090.66;6124300;23;20329;-53
2023/05/16 07:07:14;;;;;;;5.10;1.30;;;;;;;18.06;52.73;102088.94;6123121;23;20028;-53
2023/05/16 07:09:39;;;;;;;7.88;1.40;;;;;;;18.05;52.72;102085.38;6097683;23;20516;-52
2023/05/16 07:12:05;;;;;;;4.25;1.02;;;;;;;18.05;52.96;102088.09;6123563;23;20006;-53
2023/05/16 07:14:30;;;;;;;4.25;1.23;;;;;;;18.07;52.87;102091.53;6123619;23;20010;-53
2023/05/16 07:16:56;;;;;;;7.50;1.08;;;;;;;18.07;52.97;102101.44;6123328;23;20017;-52
2023/05/16 07:19:21;;;;;;;5.45;1.42;;;;;;;18.08;53.08;102092.38;6123531;23;20009;-53
2023/05/16 07:21:46;;;;;;;3.03;1.00;;;;;;;18.08;52.79;102093.22;6123649;23;20065;-54
2023/05/16 07:24:12;;;;;;;4.15;1.00;;;;;;;18.08;53.21;102104.00;6124572;23;20041;-53
2023/05/16 07:26:37;;;;;;;6.90;1.13;;;;;;;18.08;52.92;102098.63;6125517;23;20006;-53
2023/05/16 07:29:03;;;;;;;7.90;1.25;;;;;;;18.09;52.89;102099.50;6099797;23;20013;-53
2023/05/16 07:31:29;;;;;;;4.38;1.30;;;;;;;18.07;53.03;102107.69;6125449;23;20321;-52
2023/05/16 07:33:55;;;;;;;5.38;1.35;;;;;;;18.09;52.97;102112.97;6125489;23;20468;-53
2023/05/16 07:36:21;;;;;;;2.70;1.08;;;;;;;18.09;52.97;102107.59;6125522;23;20010;-53
2023/05/16 07:38:46;;;;;;;2.80;0.93;;;;;;;18.08;53.09;102113.94;6125886;23;20010;-53
2023/05/16 07:41:12;;;;;;;6.15;1.77;;;;;;;18.08;52.74;102104.00;6125127;23;20052;-53
2023/05/16 07:43:37;;;;;;;5.82;1.20;;;;;;;18.09;52.59;102112.97;6125254;23;20010;-53
2023/05/16 07:46:04;;;;;;;4.97;1.50;;;;;;;18.08;52.84;102112.09;6125311;23;20013;-53
2023/05/16 07:48:30;;;;;;;4.32;1.00;;;;;;;18.07;52.86;102113.09;6124935;23;20006;-54
2023/05/16 07:50:55;;;;;;;3.22;0.90;;;;;;;18.08;52.79;102113.94;6125343;23;20040;-53
2023/05/16 07:53:21;;;;;;;4.20;1.10;;;;;;;18.07;52.59;102121.16;6125696;23;20016;-54
2023/05/16 07:55:47;;;;;;;3.67;1.13;;;;;;;18.08;52.83;102119.31;6125430;23;20061;-53
2023/05/16 07:58:13;;;;;;;3.67;1.00;;;;;;;18.08;52.70;102116.63;6125184;23;20006;-53
2023/05/16 08:00:38;;;;;;;2.53;0.88;;;;;;;18.09;52.80;102118.38;6125242;23;20035;-53
2023/05/16 08:03:05;;;;;;;3.45;0.93;;;;;;;18.09;52.72;102110.28;6124818;23;20010;-53
2023/05/16 08:05:30;;;;;;;3.35;1.10;;;;;;;18.08;52.80;102113.94;6124866;23;20417;-51
2023/05/16 08:07:56;;;;;;;4.32;1.10;;;;;;;18.08;52.79;102116.63;6124792;23;20072;-53
2023/05/16 08:10:22;;;;;;;3.88;1.00;;;;;;;18.08;52.84;102113.94;6125533;23;20018;-52
2023/05/16 08:12:47;;;;;;;5.28;1.30;;;;;;;18.06;52.53;102116.75;6125775;23;20429;-53
2023/05/16 08:15:13;;;;;;;3.78;1.10;;;;;;;18.06;52.52;102122.13;6125092;23;20016;-53
2023/05/16 08:17:38;;;;;;;4.00;1.27;;;;;;;18.07;52.85;102120.31;6124696;23;20010;-53
2023/05/16 08:20:04;;;;;;;2.90;1.10;;;;;;;18.06;52.52;102127.53;6124843;23;20013;-53
2023/05/16 08:22:31;;;;;;;3.85;0.90;;;;;;;18.06;52.54;102123.97;6125158;23;20006;-52
2023/05/16 08:24:56;;;;;;;2.63;0.73;;;;;;;18.07;52.51;102120.31;6124874;23;20005;-52
2023/05/16 08:27:23;;;;;;;4.05;1.02;;;;;;;18.07;52.60;102112.22;6125432;23;20425;-53
2023/05/16 08:29:48;;;;;;;5.05;1.13;;;;;;;18.09;52.45;102121.91;6126143;23;20040;-53
2023/05/16 08:32:14;;;;;;;2.88;1.33;;;;;;;18.09;52.54;102115.66;6124891;23;20010;-53
2023/05/16 08:34:40;;;;;;;3.05;0.80;;;;;;;18.10;52.62;102114.69;6124485;23;20010;-52
2023/05/16 08:37:05;;;;;;;3.58;1.17;;;;;;;18.11;52.58;102114.56;6124073;23;20014;-52
2023/05/16 08:39:31;;;;;;;2.03;1.20;;;;;;;18.11;52.71;102111.88;6124901;23;20006;-53
2023/05/16 08:41:57;;;;;;;3.20;0.93;;;;;;;18.11;52.67;102111.03;6098861;23;20006;-53
2023/05/16 08:44:23;;;;;;;3.15;0.95;;;;;;;18.11;52.65;102105.63;6125391;23;20406;-53
2023/05/16 08:46:52;;;;;;;2.20;0.70;;;;;;;18.11;52.71;102111.03;6124477;23;20013;-54
2023/05/16 08:49:19;;;;;;;2.72;1.00;;;;;;;18.12;52.69;102101.94;6124780;23;20013;-53
2023/05/16 08:51:50;;;;;;;4.95;0.98;;;;;;;18.11;52.56;102108.31;6124736;23;20008;-54
2023/05/16 08:54:16;;;;;;;;;;;;;;;18.21;53.11;102103.94;6125214;23;20084;-51
2023/05/16 08:56:42;;;;;;;4.20;0.90;;;;;;;18.13;52.55;102101.84;6124455;23;19909;-53
2023/05/16 08:59:08;;;;;;;1.92;0.90;;;;;;;18.12;52.63;102104.63;6124853;23;20060;-54
2023/05/16 09:01:34;;;;;;;2.45;0.88;;;;;;;18.12;52.62;102104.63;6124418;23;20006;-53
2023/05/16 09:04:00;;;;;;;2.85;1.23;;;;;;;18.12;52.55;102107.34;6124514;23;20010;-53
2023/05/16 09:06:27;;;;;;;2.30;0.80;;;;;;;18.13;52.63;102100.97;6124140;23;20053;-53
2023/05/16 09:08:53;;;;;;;2.08;0.80;;;;;;;18.13;52.58;102101.84;6124983;23;20013;-53
2023/05/16 09:11:18;;;;;;;5.50;1.10;;;;;;;18.14;52.68;102102.69;6125022;23;20784;-53
2023/05/16 09:13:43;;;;;;;2.10;0.73;;;;;;;18.15;52.44;102109.81;6125022;23;20010;-53
2023/05/16 09:16:12;;;;;;;2.28;0.90;;;;;;;18.16;52.42;102111.50;6099242;23;20018;-53
2023/05/16 09:18:39;;;;;;;1.98;0.82;;;;;;;18.14;52.47;102114.34;6125350;23;20006;-51
2023/05/16 09:21:06;;;;;;;5.07;0.98;;;;;;;18.14;52.56;102114.34;6124310;23;20006;-52
2023/05/16 09:23:32;;;;;;;1.85;0.88;;;;;;;18.14;52.57;102119.75;6124667;23;20017;-53
2023/05/16 09:25:57;;;;;;;2.83;0.77;;;;;;;18.14;52.83;102118.84;6124460;23;20068;-53
2023/05/16 09:28:24;;;;;;;4.25;1.10;;;;;;;18.14;52.63;102118.84;6124780;23;20013;-53
2023/05/16 09:30:52;;;;;;;6.82;1.13;;;;;;;18.14;52.75;102113.47;6124166;23;20089;-51
2023/05/16 09:33:18;;;;;;;3.88;1.17;;;;;;;18.13;52.67;102112.63;6124499;23;20025;-53
2023/05/16 09:35:43;;;;;;;3.30;1.08;;;;;;;18.13;52.75;102115.31;6124167;23;20480;-53
2023/05/16 09:38:16;;;;;;;2.75;0.90;;;;;;;18.14;53.05;102127.81;6124433;23;20017;-53
2023/05/16 09:40:42;;;;;;;3.92;1.08;;;;;;;18.14;52.75;102113.47;6124538;23;20016;-53
2023/05/16 09:43:07;;;;;;;2.17;0.70;;;;;;;18.16;52.85;102111.50;6124268;23;20084;-53
2023/05/16 09:45:34;;;;;;;0.80;0.57;;;;;;;18.15;52.79;102099.88;6124227;23;20014;-52
2023/05/16 09:48:13;;;;;;;4.38;1.00;;;;;;;18.17;52.96;102113.25;6123905;23;20040;-53
2023/05/16 09:50:41;;;;;;;2.78;0.90;;;;;;;18.18;53.05;102112.25;6124094;23;20081;-53
2023/05/16 09:53:06;;;;;;;6.47;1.10;;;;;;;18.17;52.83;102108.69;6124221;23;20373;-53
2023/05/16 09:55:32;;;;;;;2.63;0.90;;;;;;;18.19;52.84;102099.66;6124299;23;20006;-53
2023/05/16 09:57:57;;;;;;;3.25;1.02;;;;;;;18.20;52.91;102104.06;6097987;23;20422;-52
2023/05/16 10:00:30;;;;;;;3.03;1.00;;;;;;;18.19;53.18;102105.91;6124549;23;20010;-53
2023/05/16 10:02:56;;;;;;;3.33;0.93;;;;;;;18.19;53.11;102105.91;6124601;23;20017;-54
2023/05/16 10:05:25;;;;;;;2.15;0.70;;;;;;;18.19;53.28;102103.19;6124190;23;20044;-53
2023/05/16 10:07:55;;;;;;;3.83;0.93;;;;;;;18.17;53.15;102114.09;6123872;23;20022;-53
2023/05/16 10:10:20;;;;;;;3.08;0.75;;;;;;;18.18;53.00;102125.72;6123933;23;20001;-53
2023/05/16 10:12:46;;;;;;;2.25;0.88;;;;;;;18.18;53.36;102117.63;6124063;23;20009;-53
2023/05/16 10:15:13;;;;;;;5.25;0.98;;;;;;;18.20;52.64;102106.75;6123950;23;20010;-53
2023/05/16 10:17:42;;;;;;;3.20;0.82;;;;;;;18.19;52.63;102100.50;6123740;23;20061;-52
2023/05/16 10:20:10;;;;;;;1.92;0.60;;;;;;;18.20;52.69;102110.31;6124763;23;20061;-54
2023/05/16 10:22:41;;;;;;;3.20;0.93;;;;;;;18.21;53.03;102097.69;6123471;23;20006;-53
2023/05/16 10:25:13;;;;;;;3.35;1.00;;;;;;;18.22;52.84;102104.78;6124217;23;20006;-54
2023/05/16 10:27:41;;;;;;;1.52;0.55;;;;;;;18.21;52.94;102101.25;6123886;23;20061;-53
2023/05/16 10:30:08;;;;;;;1.85;0.70;;;;;;;18.22;52.90;102097.59;6123950;23;20013;-53
2023/05/16 10:32:36;;;;;;;3.28;1.08;;;;;;;18.21;52.90;102098.56;6123729;23;20088;-53
2023/05/16 10:35:02;;;;;;;2.10;0.75;;;;;;;18.23;52.94;102106.53;6124012;23;20022;-53
2023/05/16 10:37:32;;;;;;;3.45;0.90;;;;;;;18.23;53.05;102107.38;6123780;23;20014;-53
2023/05/16 10:40:04;;;;;;;3.58;0.80;;;;;;;18.24;53.34;102103.72;6123142;23;20056;-53
2023/05/16 10:42:31;;;;;;;2.17;1.05;;;;;;;18.25;53.88;102110.81;6123623;23;20329;-53
2023/05/16 10:45:17;;;;;;;1.65;0.65;;;;;;;18.26;54.33;102104.47;6124075;23;20384;-53
2023/05/16 10:47:57;;;;;;;5.53;0.90;;;;;;;18.26;54.23;102096.38;6123225;23;20060;-53
2023/05/16 10:50:33;;;;;;;3.45;0.77;;;;;;;18.28;54.15;102099.81;6096978;23;20033;-53
2023/05/16 10:53:17;;;;;;;5.43;1.00;;;;;;;18.28;50.85;102107.03;6123972;23;19998;-56
2023/05/16 10:55:50;;;;;;;5.45;1.40;;;;;;;18.14;45.92;102102.69;6123462;23;20420;-48
2023/05/16 10:58:39;;;;;;;6.93;1.08;;;;;;;18.03;45.63;102099.94;6123042;23;20052;-65
2023/05/16 11:01:31;;;;;;;5.88;1.02;;;;;;;17.87;43.81;102109.19;6123352;23;20002;-54
2023/05/16 11:03:59;;;;;;;;;;;;;;;17.93;46.09;102099.78;6124514;23;20056;-46
2023/05/16 11:06:42;;;;;;;4.82;1.38;;;;;;;17.58;43.12;102111.31;6123479;23;19913;-55
2023/05/16 11:09:25;;;;;;;3.30;1.00;;;;;;;17.55;44.95;102112.41;6123105;23;20022;-55
2023/05/16 11:11:50;;;;;;;3.10;1.02;;;;;;;17.58;45.06;102111.31;6123995;23;20009;-55
2023/05/16 11:14:46;;;;;;;6.03;1.10;;;;;;;17.58;45.54;102119.41;6123120;23;20572;-55
2023/05/16 11:17:13;;;;;;;5.57;1.65;;;;;;;17.58;44.84;102114.88;6123153;23;20006;-55
2023/05/16 11:19:59;;;;;;;3.67;1.08;;;;;;;17.59;46.12;102113.91;6123390;23;20437;-56
2023/05/16 11:22:28;;;;;;;6.47;1.30;;;;;;;17.62;46.43;102114.66;6123199;23;20002;-55
2023/05/16 11:24:59;;;;;;;4.40;1.30;;;;;;;17.46;43.63;102118.47;6123367;23;20029;-59
2023/05/16 11:27:36;;;;;;;3.33;1.13;;;;;;;17.40;42.65;102124.28;6122278;23;20006;-60